Time;durP1;ratioP1;P1;durP2;ratioP2;P2;SDS_P1;SDS_P2;PMS_P1;PMS_P2;Temp;Humidity;BMP_temperature;BMP_pressure;BME280_temperature;BME280_humidity;BME280_pressure;Samples;Min_cycle;Max_cycle;Signal;HPM_P1;HPM_P2
2023/09/04 00:00:08;;;;;;;5.07;2.60;;;;;;;21.70;63.89;97018.50;5089919;28;20231;-75
2023/09/04 00:02:43;;;;;;;3.53;2.60;;;;;;;21.46;65.71;97015.41;5073749;28;20595;-77
2023/09/04 00:05:11;;;;;;;6.20;3.07;;;;;;;20.95;67.15;96974.28;5090078;28;20191;-78
2023/09/04 00:07:41;;;;;;;4.50;2.70;;;;;;;21.21;68.37;97023.84;5090655;28;20561;-76
2023/09/04 00:10:08;;;;;;;4.13;2.53;;;;;;;21.02;68.65;97012.28;5071768;28;20203;-76
2023/09/04 00:12:36;;;;;;;3.57;2.67;;;;;;;21.13;69.78;97023.69;5090111;28;20196;-77
2023/09/04 00:15:04;;;;;;;5.90;2.63;;;;;;;21.08;70.61;97026.75;5089995;28;20692;-77
2023/09/04 00:17:33;;;;;;;4.50;2.40;;;;;;;20.95;72.40;97010.31;5089914;28;20258;-77
2023/09/04 00:20:03;;;;;;;3.17;2.50;;;;;;;20.89;71.38;97016.13;5055693;28;20738;-77
2023/09/04 00:22:33;;;;;;;3.07;2.23;;;;;;;20.95;70.97;97032.22;5089358;28;20202;-78
2023/09/04 00:25:01;;;;;;;3.37;2.00;;;;;;;20.70;72.04;97016.88;5038662;28;20569;-77
2023/09/04 00:27:29;;;;;;;4.23;2.67;;;;;;;20.57;72.73;96987.31;5089656;28;20208;-78
2023/09/04 00:29:57;;;;;;;5.13;3.40;;;;;;;20.66;73.34;96994.44;5055397;28;20201;-78
2023/09/04 00:32:26;;;;;;;3.57;2.67;;;;;;;21.19;72.87;97023.97;5054510;28;20765;-81
2023/09/04 00:34:53;;;;;;;4.43;2.33;;;;;;;21.36;72.79;97009.31;5071573;28;20201;-77
2023/09/04 00:37:21;;;;;;;4.53;2.27;;;;;;;21.24;72.57;96994.59;5090018;28;20644;-77
2023/09/04 00:39:50;;;;;;;3.03;2.50;;;;;;;21.31;72.65;96995.72;5089332;28;20218;-80
2023/09/04 00:42:18;;;;;;;4.10;2.57;;;;;;;21.24;72.69;97002.50;5055239;28;20731;-78
2023/09/04 00:44:52;;;;;;;2.47;2.27;;;;;;;21.13;71.93;96997.34;5054748;28;20193;-81
2023/09/04 00:47:23;;;;;;;3.03;2.40;;;;;;;20.89;71.70;96989.78;5089415;28;20185;-78
2023/09/04 00:49:52;;;;;;;6.07;2.50;;;;;;;20.71;72.73;96996.66;5055035;28;20188;-76
2023/09/04 00:52:19;;;;;;;3.17;2.50;;;;;;;20.85;72.92;96983.97;5089229;28;20248;-77
2023/09/04 00:54:48;;;;;;;3.37;2.53;;;;;;;20.89;73.18;96974.84;5089877;28;20198;-77
2023/09/04 00:57:16;;;;;;;3.40;2.50;;;;;;;20.59;72.56;96960.88;5070782;28;20205;-76
2023/09/04 00:59:46;;;;;;;3.57;2.50;;;;;;;20.75;72.95;96972.56;5071612;28;20217;-78
2023/09/04 01:02:15;;;;;;;5.00;2.43;;;;;;;20.64;73.13;96964.78;5089213;28;20239;-79
2023/09/04 01:04:46;;;;;;;5.37;2.80;;;;;;;20.77;73.80;96970.63;5071031;28;20276;-78
2023/09/04 01:07:13;;;;;;;3.77;3.03;;;;;;;20.74;73.90;96978.81;5087854;28;20196;-77
2023/09/04 01:09:41;;;;;;;4.00;2.60;;;;;;;20.71;73.83;96965.91;5088976;28;20224;-77
2023/09/04 01:12:18;;;;;;;4.63;2.93;;;;;;;20.66;73.83;96973.38;5089458;28;20238;-78
2023/09/04 01:14:48;;;;;;;5.13;2.83;;;;;;;20.54;73.89;96961.28;5088991;28;20236;-79
2023/09/04 01:17:17;;;;;;;4.70;3.00;;;;;;;20.44;75.03;96957.78;5071393;28;20580;-77
2023/09/04 01:19:45;;;;;;;3.03;2.50;;;;;;;20.52;74.62;96959.75;5071614;28;20226;-76
2023/09/04 01:22:14;;;;;;;4.23;3.07;;;;;;;20.37;75.47;96959.28;5089251;28;20293;-77
2023/09/04 01:24:43;;;;;;;4.00;2.50;;;;;;;20.65;75.26;96949.84;5071016;28;20666;-78
2023/09/04 01:27:32;;;;;;;3.27;2.67;;;;;;;20.59;75.72;96955.59;5070799;28;20295;-81
2023/09/04 01:30:19;;;;;;;5.10;2.80;;;;;;;20.65;75.74;96948.00;5086002;28;20204;-78
2023/09/04 01:33:00;;;;;;;3.57;2.70;;;;;;;20.91;75.77;96951.00;5071136;28;20239;-79
2023/09/04 01:35:30;;;;;;;4.07;2.60;;;;;;;21.06;74.89;96945.22;5088370;28;20843;-78
2023/09/04 01:38:00;;;;;;;5.50;2.60;;;;;;;21.03;73.84;96937.59;5070546;28;20208;-78
2023/09/04 01:40:27;;;;;;;3.13;2.37;;;;;;;21.05;73.20;96935.66;5053454;28;20790;-78
2023/09/04 01:42:55;;;;;;;4.20;2.30;;;;;;;20.67;73.88;96918.94;5088447;28;20216;-78
2023/09/04 01:45:25;;;;;;;4.47;2.10;;;;;;;20.17;76.79;96902.25;5088240;28;20196;-78
2023/09/04 01:47:53;;;;;;;4.40;2.23;;;;;;;20.24;76.94;96919.19;5088215;28;20193;-78
2023/09/04 01:50:21;;;;;;;2.93;2.40;;;;;;;20.10;78.51;96915.09;5069848;28;20273;-78
2023/09/04 01:52:49;;;;;;;3.60;2.43;;;;;;;20.12;79.56;96918.44;5087849;28;20188;-76
2023/09/04 01:55:16;;;;;;;3.17;2.10;;;;;;;19.82;77.83;96881.63;5070344;28;20246;-78
2023/09/04 01:57:44;;;;;;;2.07;1.87;;;;;;;20.14;77.22;96889.38;5069319;28;20201;-77
2023/09/04 02:00:11;;;;;;;4.57;1.80;;;;;;;20.20;76.66;96912.53;5053320;28;20612;-77
2023/09/04 02:02:42;;;;;;;3.20;2.00;;;;;;;20.39;76.27;96901.25;5088008;28;20184;-81
2023/09/04 02:05:10;;;;;;;3.53;1.90;;;;;;;20.74;74.31;96907.72;5033019;28;20232;-78
2023/09/04 02:07:39;;;;;;;1.53;1.43;;;;;;;20.45;74.46;96896.28;5049647;28;20204;-78
2023/09/04 02:10:07;;;;;;;3.80;2.03;;;;;;;20.71;72.11;96886.94;5067652;28;20190;-78
2023/09/04 02:12:34;;;;;;;1.80;1.47;;;;;;;20.23;71.82;96870.22;5049905;28;20194;-76
2023/09/04 02:15:02;;;;;;;2.60;1.50;;;;;;;20.18;71.56;96851.31;5049521;28;20281;-77
2023/09/04 02:17:31;;;;;;;2.53;1.70;;;;;;;19.86;74.11;96862.00;5067595;28;20217;-76
2023/09/04 02:20:01;;;;;;;2.07;1.67;;;;;;;19.45;75.18;96868.13;5067174;28;20223;-78
2023/09/04 02:22:44;;;;;;;2.57;1.53;;;;;;;19.37;75.85;96851.34;5049232;28;20290;-76
2023/09/04 02:25:11;;;;;;;2.70;1.40;;;;;;;19.48;74.89;96825.00;5067374;28;20216;-79
2023/09/04 02:27:38;;;;;;;3.30;1.90;;;;;;;19.64;75.84;96824.56;5067583;28;20191;-76
2023/09/04 02:30:08;;;;;;;2.00;1.67;;;;;;;20.01;75.07;96838.81;5049665;28;20618;-76
2023/09/04 02:32:35;;;;;;;2.13;1.77;;;;;;;20.10;74.23;96849.38;5049031;28;20201;-77
2023/09/04 02:35:03;;;;;;;1.93;1.60;;;;;;;20.36;74.42;96820.00;5049384;28;20201;-77
2023/09/04 02:37:31;;;;;;;2.50;1.80;;;;;;;20.79;74.61;96858.13;5032355;28;20570;-77
2023/09/04 02:39:58;;;;;;;3.10;1.70;;;;;;;21.08;74.23;96866.91;5067062;28;20712;-78
2023/09/04 02:42:29;;;;;;;2.60;2.00;;;;;;;21.21;73.89;96850.81;5049215;28;20233;-77
2023/09/04 02:44:57;;;;;;;2.63;2.07;;;;;;;21.30;73.33;96859.69;5066880;28;20203;-78
2023/09/04 02:47:24;;;;;;;2.43;2.07;;;;;;;21.14;73.70;96862.06;5049499;28;20204;-78
2023/09/04 02:49:51;;;;;;;4.30;2.07;;;;;;;21.19;74.06;96859.84;5066787;28;20186;-77
2023/09/04 02:52:19;;;;;;;3.37;1.70;;;;;;;21.36;72.69;96864.41;5067057;28;20209;-78
2023/09/04 02:54:47;;;;;;;4.67;2.40;;;;;;;21.42;71.74;96861.19;5048762;28;20301;-77
2023/09/04 02:57:18;;;;;;;2.80;2.30;;;;;;;21.41;72.43;96859.56;5067161;28;20658;-78
2023/09/04 02:59:49;;;;;;;3.40;2.30;;;;;;;21.08;73.12;96860.00;5048898;28;20226;-81
2023/09/04 03:02:17;;;;;;;2.43;2.20;;;;;;;21.04;74.74;96847.09;5048930;28;20199;-77
2023/09/04 03:04:45;;;;;;;5.37;3.07;;;;;;;21.29;74.97;96850.94;5067817;28;20194;-76
2023/09/04 03:07:12;;;;;;;3.00;2.50;;;;;;;21.44;74.98;96844.28;5033134;28;20246;-78
2023/09/04 03:09:40;;;;;;;2.43;2.23;;;;;;;21.46;71.07;96841.50;5049369;28;20193;-76
2023/09/04 03:12:07;;;;;;;4.67;2.53;;;;;;;21.34;70.86;96813.66;5067023;28;20202;-79
2023/09/04 03:14:36;;;;;;;2.30;1.93;;;;;;;21.27;72.73;96839.72;5065374;28;20672;-79
2023/09/04 03:17:05;;;;;;;2.70;2.07;;;;;;;20.58;77.09;96859.22;5059509;28;20317;-79
2023/09/04 03:19:34;;;;;;;2.90;2.03;;;;;;;20.24;77.19;96824.50;5048488;28;20196;-78
2023/09/04 03:22:01;;;;;;;2.63;1.90;;;;;;;20.04;77.36;96844.63;5067479;28;20197;-79
2023/09/04 03:24:29;;;;;;;2.77;2.00;;;;;;;19.77;78.44;96798.88;5066673;28;20575;-77
2023/09/04 03:26:58;;;;;;;2.77;2.43;;;;;;;20.14;78.56;96852.56;5037864;28;20196;-78
2023/09/04 03:29:26;;;;;;;4.17;2.13;;;;;;;20.18;75.98;96841.63;5050392;28;20781;-79
2023/09/04 03:31:55;;;;;;;1.90;1.63;;;;;;;20.10;74.19;96854.63;5073328;28;20681;-79
2023/09/04 03:34:24;;;;;;;2.17;1.80;;;;;;;20.41;72.59;96859.88;5072134;28;20193;-78
2023/09/04 03:36:52;;;;;;;2.17;1.93;;;;;;;20.19;72.01;96837.22;5071458;28;20216;-82
2023/09/04 03:39:21;;;;;;;1.37;1.27;;;;;;;19.93;68.16;96847.34;5071817;28;20196;-79
2023/09/04 03:41:51;;;;;;;1.87;1.47;;;;;;;20.24;69.85;96864.81;5072018;28;20219;-82
2023/09/04 03:44:18;;;;;;;2.93;1.60;;;;;;;20.27;69.48;96859.28;5072503;28;20862;-81
2023/09/04 03:46:46;;;;;;;1.73;1.30;;;;;;;20.27;65.87;96871.59;5090681;28;20197;-80
2023/09/04 03:49:13;;;;;;;1.83;1.40;;;;;;;20.29;67.36;96877.56;5089601;28;20227;-81
2023/09/04 03:51:42;;;;;;;2.83;1.60;;;;;;;20.30;67.15;96876.56;5090913;28;20196;-79
2023/09/04 03:54:09;;;;;;;3.40;1.53;;;;;;;20.01;68.84;96881.69;5055585;28;20204;-78
2023/09/04 03:56:37;;;;;;;2.20;1.53;;;;;;;19.90;69.29;96875.72;5056379;28;20193;-79
2023/09/04 03:59:04;;;;;;;2.37;1.37;;;;;;;19.74;68.72;96877.97;5072335;28;20192;-81
2023/09/04 04:01:31;;;;;;;1.97;1.47;;;;;;;20.06;68.70;96883.94;5090627;28;20600;-79
2023/09/04 04:04:02;;;;;;;2.80;2.00;;;;;;;20.28;70.91;96875.88;5072486;28;20775;-83
2023/09/04 04:06:29;;;;;;;2.00;1.80;;;;;;;20.55;70.57;96888.41;5070759;28;20184;-78
2023/09/04 04:08:56;;;;;;;1.93;1.50;;;;;;;20.53;65.70;96862.25;5063067;28;20201;-78
2023/09/04 04:11:24;;;;;;;2.20;1.70;;;;;;;20.75;64.44;96882.25;5069471;28;20667;-80
2023/09/04 04:13:52;;;;;;;3.17;1.63;;;;;;;20.75;66.02;96888.31;5069947;28;20190;-83
2023/09/04 04:16:20;;;;;;;2.17;1.70;;;;;;;20.78;66.14;96872.28;5065582;28;20706;-81
2023/09/04 04:18:50;;;;;;;2.37;2.17;;;;;;;20.92;68.25;96885.03;5110475;28;20188;-81
2023/09/04 04:21:18;;;;;;;1.83;1.50;;;;;;;20.76;67.99;96883.91;5110414;28;20611;-83
2023/09/04 04:23:45;;;;;;;3.03;2.07;;;;;;;20.50;70.53;96862.53;5110495;28;20206;-77
2023/09/04 04:26:13;;;;;;;3.80;1.93;;;;;;;20.17;69.27;96871.53;5110532;28;20287;-82
2023/09/04 04:28:42;;;;;;;3.50;2.37;;;;;;;20.26;69.91;96870.75;5092137;28;20209;-84
2023/09/04 04:31:10;;;;;;;2.40;1.90;;;;;;;20.21;70.92;96815.13;5090622;28;20176;-82
2023/09/04 04:33:39;;;;;;;2.63;2.17;;;;;;;20.78;71.46;96877.53;5069667;28;20219;-81
2023/09/04 04:36:09;;;;;;;4.93;2.40;;;;;;;21.10;70.84;96871.22;5089319;28;20714;-83
2023/09/04 04:38:36;;;;;;;2.57;2.03;;;;;;;21.22;69.91;96870.94;5092996;28;20241;-81
2023/09/04 04:41:07;;;;;;;4.33;2.80;;;;;;;20.86;71.19;96851.34;5076409;28;20219;-80
2023/09/04 04:43:36;;;;;;;6.27;2.80;;;;;;;20.94;71.94;96877.81;5092304;28;20665;-78
2023/09/04 04:46:05;;;;;;;7.87;2.67;;;;;;;20.38;73.85;96868.84;5092906;28;20192;-79
2023/09/04 04:48:33;;;;;;;3.67;3.20;;;;;;;20.54;74.07;96874.44;5110509;28;20267;-79
2023/09/04 04:51:01;;;;;;;4.80;2.50;;;;;;;20.14;74.21;96877.06;5109610;28;20194;-81
2023/09/04 04:53:28;;;;;;;2.80;2.40;;;;;;;20.15;76.26;96888.41;5109513;28;20241;-79
2023/09/04 04:55:56;;;;;;;1.53;1.30;;;;;;;20.19;67.63;96881.94;5091197;28;20188;-80
2023/09/04 04:58:24;;;;;;;1.93;1.50;;;;;;;20.08;68.75;96863.59;5091275;28;20560;-79
2023/09/04 05:00:51;;;;;;;3.03;1.60;;;;;;;20.06;67.28;96876.88;5091407;28;20312;-81
2023/09/04 05:03:19;;;;;;;3.00;2.53;;;;;;;20.59;69.18;96900.34;5108816;28;20281;-76
2023/09/04 05:05:46;;;;;;;2.10;1.90;;;;;;;20.47;70.12;96904.88;5091105;28;20252;-78
2023/09/04 05:08:14;;;;;;;3.93;2.67;;;;;;;20.76;70.24;96892.63;5109069;28;20223;-80
2023/09/04 05:10:43;;;;;;;3.93;2.27;;;;;;;21.16;69.55;96895.22;5074607;28;20664;-81
2023/09/04 05:13:11;;;;;;;6.40;5.70;;;;;;;21.08;69.71;96899.50;5090715;28;20193;-76
2023/09/04 05:15:39;;;;;;;4.60;3.50;;;;;;;21.31;69.59;96887.72;5090813;28;20276;-77
2023/09/04 05:18:07;;;;;;;3.17;2.47;;;;;;;21.34;68.79;96911.13;5091581;28;20685;-75
2023/09/04 05:20:37;;;;;;;2.90;2.10;;;;;;;20.65;72.02;96913.78;5110142;28;20734;-79
2023/09/04 05:23:05;;;;;;;4.30;2.33;;;;;;;20.44;73.48;96904.34;5094084;28;20215;-75
2023/09/04 05:25:32;;;;;;;2.63;1.70;;;;;;;20.35;72.03;96895.44;5091356;28;20196;-75
2023/09/04 05:28:00;;;;;;;3.50;2.30;;;;;;;20.66;70.38;96889.16;5108974;28;20186;-79
2023/09/04 05:30:27;;;;;;;2.50;2.10;;;;;;;20.71;70.68;96902.72;5090826;28;20184;-74
2023/09/04 05:32:56;;;;;;;4.30;3.00;;;;;;;20.41;72.56;96879.13;5090418;28;20207;-76
2023/09/04 05:35:23;;;;;;;5.63;2.30;;;;;;;20.35;72.88;96905.97;5109170;28;20196;-77
2023/09/04 05:37:51;;;;;;;2.97;2.33;;;;;;;20.46;73.81;96905.03;5108128;28;20269;-79
2023/09/04 05:40:18;;;;;;;2.50;1.93;;;;;;;20.30;73.31;96895.00;5108805;28;20691;-81
2023/09/04 05:42:46;;;;;;;3.03;2.17;;;;;;;20.18;73.55;96890.75;5107834;28;20286;-76
2023/09/04 05:45:13;;;;;;;8.50;4.97;;;;;;;20.20;73.11;96883.59;5108282;28;20283;-76
2023/09/04 05:47:40;;;;;;;2.50;2.30;;;;;;;20.50;72.92;96894.09;5107756;28;20552;-74
2023/09/04 05:50:10;;;;;;;8.53;4.90;;;;;;;20.85;72.24;96905.00;5107885;28;20188;-78
2023/09/04 05:52:38;;;;;;;2.83;2.53;;;;;;;21.10;69.53;96887.84;5103111;28;20210;-78
2023/09/04 05:55:06;;;;;;;3.07;2.67;;;;;;;21.02;69.02;96895.59;5087250;28;20188;-77
2023/09/04 05:57:35;;;;;;;3.53;2.30;;;;;;;21.34;69.13;96903.22;5069970;28;20600;-78
2023/09/04 06:00:06;;;;;;;11.03;6.33;;;;;;;21.42;68.77;96892.81;5087519;28;20568;-81
2023/09/04 06:02:41;;;;;;;7.20;4.60;;;;;;;21.76;68.96;96910.66;5087685;28;20207;-74
2023/09/04 06:05:09;;;;;;;6.47;3.60;;;;;;;21.92;68.38;96890.81;5069501;28;20206;-79
2023/09/04 06:07:37;;;;;;;3.93;2.50;;;;;;;22.17;67.02;96895.47;5087464;28;20335;-79
2023/09/04 06:10:05;;;;;;;4.13;2.40;;;;;;;22.36;66.78;96900.66;5068787;28;20670;-79
2023/09/04 06:12:33;;;;;;;2.87;2.57;;;;;;;22.56;65.91;96900.44;5051810;28;20602;-74
2023/09/04 06:15:00;;;;;;;6.03;4.27;;;;;;;22.45;65.63;96900.63;5087589;28;20299;-80
2023/09/04 06:17:31;;;;;;;3.53;2.70;;;;;;;22.41;63.77;96872.00;5052289;28;20673;-75
2023/09/04 06:19:58;;;;;;;3.87;3.47;;;;;;;22.47;66.36;96914.50;5052131;28;20575;-81
2023/09/04 06:22:26;;;;;;;6.33;5.20;;;;;;;22.34;67.16;96921.91;5069055;28;20242;-80
2023/09/04 06:24:53;;;;;;;3.33;2.73;;;;;;;22.19;67.93;96915.47;5051799;28;20200;-74
2023/09/04 06:27:20;;;;;;;3.73;2.60;;;;;;;22.19;68.03;96918.09;5069277;28;20692;-77
2023/09/04 06:29:48;;;;;;;5.40;3.13;;;;;;;22.48;66.81;96910.84;5067971;28;20195;-74
2023/09/04 06:32:15;;;;;;;3.93;3.17;;;;;;;22.49;66.37;96907.25;5068519;28;20211;-74
2023/09/04 06:34:42;;;;;;;4.87;4.00;;;;;;;22.75;65.21;96911.88;5068038;28;20589;-79
2023/09/04 06:37:10;;;;;;;4.97;3.10;;;;;;;22.56;62.52;96897.78;5051669;28;20286;-73
2023/09/04 06:39:38;;;;;;;2.90;2.40;;;;;;;22.73;61.45;96913.84;5067781;28;20694;-74
2023/09/04 06:42:09;;;;;;;3.70;3.30;;;;;;;22.62;60.00;96897.22;5068279;28;20240;-74
2023/09/04 06:44:37;;;;;;;4.80;3.57;;;;;;;22.75;64.24;96917.97;5068620;28;20188;-74
2023/09/04 06:47:05;;;;;;;20.63;5.87;;;;;;;22.80;66.03;96906.97;5086334;28;20215;-78
2023/09/04 06:49:32;;;;;;;8.03;4.07;;;;;;;22.67;67.61;96925.00;5086756;28;20726;-78
2023/09/04 06:52:01;;;;;;;10.40;5.13;;;;;;;22.22;67.66;96846.56;5068386;28;20256;-74
2023/09/04 06:54:30;;;;;;;5.97;4.53;;;;;;;22.57;67.00;96915.28;5069002;28;20201;-76
2023/09/04 06:56:58;;;;;;;12.77;3.73;;;;;;;22.76;65.46;96924.09;5086490;28;20217;-77
2023/09/04 06:59:26;;;;;;;17.57;5.63;;;;;;;22.76;65.93;96926.72;5035389;28;20643;-81
2023/09/04 07:01:53;;;;;;;15.13;4.63;;;;;;;22.65;66.35;96922.47;5053599;28;20226;-77
2023/09/04 07:04:21;;;;;;;8.03;4.20;;;;;;;22.08;68.95;96926.16;5068963;28;20721;-77
2023/09/04 07:06:48;;;;;;;8.07;4.43;;;;;;;21.22;72.79;96930.69;5070366;28;20267;-81
2023/09/04 07:09:17;;;;;;;7.77;4.87;;;;;;;20.68;74.01;96905.66;5053843;28;20270;-74
2023/09/04 07:11:45;;;;;;;7.97;6.27;;;;;;;21.04;73.35;96922.66;5086890;28;20563;-77
2023/09/04 07:14:12;;;;;;;8.97;6.67;;;;;;;20.89;74.96;96930.06;5068180;28;20199;-75
2023/09/04 07:16:39;;;;;;;5.13;3.90;;;;;;;20.77;74.39;96917.97;5085780;28;20258;-77
2023/09/04 07:19:27;;;;;;;5.53;3.63;;;;;;;20.78;74.59;96930.19;5086469;28;20235;-75
2023/09/04 07:21:55;;;;;;;9.47;5.43;;;;;;;21.21;73.94;96957.97;5085645;28;20212;-74
2023/09/04 07:24:28;;;;;;;9.10;4.70;;;;;;;21.25;73.34;96954.94;5086115;28;20190;-74
2023/09/04 07:26:56;;;;;;;9.50;4.40;;;;;;;21.28;72.65;96961.75;5086016;28;20529;-76
2023/09/04 07:29:23;;;;;;;9.23;4.53;;;;;;;21.41;71.08;96944.69;5086085;28;20224;-73
2023/09/04 07:31:50;;;;;;;10.40;5.23;;;;;;;21.71;70.27;96962.16;5085527;28;20570;-76
2023/09/04 07:34:18;;;;;;;6.43;4.00;;;;;;;21.52;71.04;96962.16;5067532;28;20199;-76
2023/09/04 07:36:46;;;;;;;11.80;5.13;;;;;;;21.70;70.86;96961.31;5068158;28;20198;-75
2023/09/04 07:39:13;;;;;;;6.70;3.77;;;;;;;21.92;69.65;96978.69;5069232;28;20201;-73
2023/09/04 07:41:42;;;;;;;4.93;3.00;;;;;;;21.59;68.29;96964.13;5068026;28;20234;-73
2023/09/04 07:44:09;;;;;;;5.03;3.20;;;;;;;21.87;68.65;96973.00;5085825;28;20202;-77
2023/09/04 07:46:38;;;;;;;4.17;3.10;;;;;;;21.93;67.68;96959.25;5085692;28;20192;-74
2023/09/04 07:49:06;;;;;;;6.73;4.07;;;;;;;22.10;67.69;96971.69;5067770;28;20285;-78
2023/09/04 07:51:35;;;;;;;5.23;3.17;;;;;;;21.97;64.84;96947.44;5067820;28;20213;-73
2023/09/04 07:54:03;;;;;;;7.77;4.00;;;;;;;22.37;66.80;96965.66;5085683;28;20196;-78
2023/09/04 07:56:30;;;;;;;5.80;3.73;;;;;;;22.30;66.86;96970.66;5046905;28;20669;-82
2023/09/04 07:59:08;;;;;;;3.27;2.70;;;;;;;22.31;62.31;96969.72;5047296;28;20666;-77
2023/09/04 08:01:38;;;;;;;4.20;3.33;;;;;;;22.23;61.07;96969.59;5065454;28;20291;-77
2023/09/04 08:04:07;;;;;;;7.67;3.07;;;;;;;22.23;62.64;96974.03;5030812;28;20585;-73
2023/09/04 08:06:35;;;;;;;4.97;3.67;;;;;;;22.03;62.86;96967.97;5065018;28;20624;-74
2023/09/04 08:09:04;;;;;;;3.07;2.77;;;;;;;21.55;64.07;96988.25;5046314;28;20227;-73
2023/09/04 08:11:32;;;;;;;4.87;3.47;;;;;;;20.95;65.50;96969.03;5047619;28;20283;-76
2023/09/04 08:14:01;;;;;;;5.20;3.70;;;;;;;20.92;66.57;96985.06;5064976;28;20192;-76
2023/09/04 08:16:29;;;;;;;4.37;3.47;;;;;;;20.66;67.72;96989.16;5067400;28;20719;-80
2023/09/04 08:18:56;;;;;;;7.27;4.43;;;;;;;20.62;68.86;96994.81;5017962;28;20198;-73
2023/09/04 08:21:25;;;;;;;6.47;4.17;;;;;;;20.63;69.73;96992.06;5034430;28;20221;-81
2023/09/04 08:23:52;;;;;;;5.17;3.60;;;;;;;20.68;69.37;96992.50;5068634;28;20686;-78
2023/09/04 08:26:20;;;;;;;4.37;3.70;;;;;;;20.56;70.02;96993.56;5068354;28;20206;-77
2023/09/04 08:28:48;;;;;;;4.07;2.90;;;;;;;20.40;71.25;97000.28;5069469;28;20204;-79
2023/09/04 08:31:16;;;;;;;4.07;3.30;;;;;;;20.27;72.38;96996.06;5050508;28;20228;-77
2023/09/04 08:33:44;;;;;;;8.10;5.73;;;;;;;19.98;70.87;97002.06;5050479;28;20627;-82
2023/09/04 08:36:13;;;;;;;4.47;3.63;;;;;;;19.91;71.67;96996.47;5033775;28;20197;-78
2023/09/04 08:38:41;;;;;;;3.97;3.20;;;;;;;19.94;71.23;96987.50;5050508;28;20208;-77
2023/09/04 08:41:15;;;;;;;6.43;5.13;;;;;;;20.05;70.85;96997.97;5068432;28;20216;-82
2023/09/04 08:43:45;;;;;;;14.10;9.17;;;;;;;20.38;69.83;96997.75;5066948;28;20233;-76
2023/09/04 08:46:15;;;;;;;7.63;3.77;;;;;;;20.30;69.72;96989.69;5050735;28;20190;-78
2023/09/04 08:48:44;;;;;;;3.20;2.90;;;;;;;20.24;68.96;97006.00;5050470;28;20196;-80
2023/09/04 08:51:11;;;;;;;3.50;3.10;;;;;;;20.34;70.07;96992.91;5033521;28;20209;-80
2023/09/04 08:53:39;;;;;;;3.30;3.00;;;;;;;20.29;70.08;96988.03;5050533;28;20198;-80
2023/09/04 08:56:06;;;;;;;3.37;3.07;;;;;;;20.38;69.60;96989.84;5033240;28;20219;-79
2023/09/04 08:58:38;;;;;;;2.60;2.40;;;;;;;20.36;68.91;96986.53;5034136;28;20920;-78
2023/09/04 09:01:05;;;;;;;3.20;2.90;;;;;;;20.36;67.42;97004.94;5067866;28;20230;-81
2023/09/04 09:03:33;;;;;;;2.60;2.40;;;;;;;20.56;66.18;97004.09;5049815;28;20250;-82
2023/09/04 09:06:03;;;;;;;3.10;2.60;;;;;;;20.65;65.83;97003.28;5049504;28;20193;-78
2023/09/04 09:08:33;;;;;;;20.13;3.80;;;;;;;20.77;67.51;96999.56;5033114;28;20201;-77
2023/09/04 09:11:03;;;;;;;4.33;2.83;;;;;;;20.86;67.65;97009.31;5069268;28;20192;-76
2023/09/04 09:13:31;;;;;;;3.57;3.10;;;;;;;20.68;68.54;96997.75;5050111;28;20212;-80
2023/09/04 09:15:59;;;;;;;4.30;2.63;;;;;;;20.61;67.15;96991.34;5049954;28;20197;-84
2023/09/04 09:18:42;;;;;;;5.07;3.30;;;;;;;20.61;67.40;97006.34;5067849;28;20235;-77
2023/09/04 09:21:34;;;;;;;6.40;4.53;;;;;;;20.65;67.36;96998.00;5067600;28;20731;-83
2023/09/04 09:24:13;;;;;;;2.73;2.50;;;;;;;20.87;68.84;97003.09;5017211;28;20729;-83
2023/09/04 09:26:47;;;;;;;2.60;2.40;;;;;;;21.10;67.95;97003.75;5068723;28;20192;-82
2023/09/04 09:29:17;;;;;;;2.97;2.23;;;;;;;20.94;65.59;97004.22;5050192;28;20636;-82
2023/09/04 09:31:46;;;;;;;2.87;2.57;;;;;;;20.52;65.85;96986.91;5066841;28;20202;-85
2023/09/04 09:34:19;;;;;;;2.47;2.27;;;;;;;20.57;66.82;96995.22;5069767;28;20208;-80
2023/09/04 09:36:46;;;;;;;3.93;2.80;;;;;;;20.55;67.01;96976.09;5037333;28;20262;-79
2023/09/04 09:39:14;;;;;;;3.57;2.97;;;;;;;20.72;67.94;96983.38;5032701;28;20208;-83
2023/09/04 09:41:45;;;;;;;2.83;2.33;;;;;;;20.76;66.20;96984.75;5032669;28;20729;-81
2023/09/04 09:44:12;;;;;;;3.57;2.60;;;;;;;20.91;66.15;96987.84;5050423;28;20319;-82
2023/09/04 09:46:41;;;;;;;3.00;2.50;;;;;;;21.17;65.41;96982.94;5060796;28;20204;-78
2023/09/04 09:49:11;;;;;;;2.60;2.40;;;;;;;21.08;63.19;96994.31;5060034;28;20198;-83
2023/09/04 09:51:38;;;;;;;3.93;2.20;;;;;;;21.10;64.32;96987.94;5071313;28;20216;-84
2023/09/04 09:54:08;;;;;;;4.10;2.40;;;;;;;21.18;64.31;96984.63;5068864;28;20610;-81
2023/09/04 09:56:36;;;;;;;2.23;2.03;;;;;;;21.41;63.04;96972.84;5051160;28;20202;-84
2023/09/04 09:59:04;;;;;;;4.47;2.17;;;;;;;21.50;62.02;96975.47;5050997;28;20353;-79
2023/09/04 10:01:32;;;;;;;2.70;2.00;;;;;;;21.36;60.62;96972.44;5051315;28;20236;-81
2023/09/04 10:04:01;;;;;;;2.00;1.80;;;;;;;21.07;61.72;96977.66;5051414;28;20253;-83
2023/09/04 10:06:34;;;;;;;3.10;1.70;;;;;;;20.85;62.91;96970.81;5000469;28;20285;-76
2023/09/04 10:09:06;;;;;;;3.77;1.80;;;;;;;20.84;62.63;96966.50;5067267;28;20255;-79
2023/09/04 10:11:46;;;;;;;2.10;1.90;;;;;;;20.59;63.63;96974.03;5066643;28;20310;-83
2023/09/04 10:14:27;;;;;;;3.40;1.60;;;;;;;20.56;63.92;96988.31;5016909;28;20235;-81
2023/09/04 10:17:01;;;;;;;1.90;1.60;;;;;;;20.43;65.39;96982.41;5048995;28;20208;-85
2023/09/04 10:19:32;;;;;;;1.97;1.80;;;;;;;19.88;65.77;96922.31;5048849;28;20295;-83
2023/09/04 10:22:04;;;;;;;3.10;2.00;;;;;;;20.36;66.24;96965.47;5048994;28;20222;-80
2023/09/04 10:24:45;;;;;;;2.33;1.80;;;;;;;20.55;64.00;96989.25;5032564;28;20281;-80
2023/09/04 10:27:19;;;;;;;2.63;2.03;;;;;;;20.52;62.31;96973.75;5066919;28;20200;-76
2023/09/04 10:30:01;;;;;;;2.10;1.90;;;;;;;20.54;62.71;96977.06;5049565;28;20205;-78
2023/09/04 10:32:33;;;;;;;3.03;1.93;;;;;;;20.40;63.83;96972.19;5032241;28;20199;-80
2023/09/04 10:35:05;;;;;;;4.20;1.97;;;;;;;20.25;64.65;96970.84;5032375;28;20295;-83
2023/09/04 10:37:40;;;;;;;3.00;1.73;;;;;;;20.27;63.50;96988.16;5048659;28;20614;-81
2023/09/04 10:40:10;;;;;;;2.33;1.97;;;;;;;20.41;62.82;96992.25;5048527;28;20573;-76
2023/09/04 10:42:41;;;;;;;3.60;2.33;;;;;;;20.24;63.79;96987.56;5031083;28;20779;-77
2023/09/04 10:45:14;;;;;;;2.60;2.30;;;;;;;20.17;62.54;96991.69;5047953;28;20189;-78
2023/09/04 10:47:50;;;;;;;4.10;2.40;;;;;;;20.23;63.42;96996.44;5048995;28;20190;-83
2023/09/04 10:50:30;;;;;;;3.20;2.27;;;;;;;20.51;62.36;97006.28;5048911;28;20193;-78
2023/09/04 10:53:00;;;;;;;3.83;2.03;;;;;;;20.66;62.13;96996.22;5066124;28;20203;-77
2023/09/04 10:55:29;;;;;;;4.00;2.23;;;;;;;20.68;62.35;97015.34;5048519;28;20194;-80
2023/09/04 10:58:05;;;;;;;5.00;2.40;;;;;;;20.61;62.09;97007.13;5066274;28;20193;-75
2023/09/04 11:00:33;;;;;;;3.87;2.20;;;;;;;20.73;61.74;97000.00;5065442;28;20218;-78
2023/09/04 11:03:24;;;;;;;1.83;1.70;;;;;;;20.08;62.48;96956.47;5015470;28;20223;-83
2023/09/04 11:06:02;;;;;;;2.33;1.90;;;;;;;20.66;62.20;96999.69;5066278;28;20286;-77
2023/09/04 11:08:30;;;;;;;3.67;2.27;;;;;;;20.90;62.33;96975.66;5048578;28;20180;-82
2023/09/04 11:11:01;;;;;;;1.93;1.73;;;;;;;20.52;61.65;96971.13;5050614;28;20601;-84
2023/09/04 11:13:36;;;;;;;4.00;2.60;;;;;;;20.71;61.81;96991.41;5057359;28;20688;-79
2023/09/04 11:16:07;;;;;;;2.27;2.00;;;;;;;20.92;60.82;96982.44;5047698;28;20251;-79
2023/09/04 11:18:37;;;;;;;1.73;1.60;;;;;;;20.68;61.40;96986.41;5048736;28;20583;-82
2023/09/04 11:21:05;;;;;;;2.73;1.77;;;;;;;20.38;62.04;96979.34;5048006;28;20201;-82
2023/09/04 11:23:33;;;;;;;2.47;2.27;;;;;;;20.66;61.29;96973.38;5047710;28;20231;-78
2023/09/04 11:26:02;;;;;;;2.43;2.03;;;;;;;20.90;60.99;96980.91;5086986;28;20180;-77
2023/09/04 11:28:30;;;;;;;2.10;1.90;;;;;;;20.78;60.66;96966.19;5068392;28;20196;-79
2023/09/04 11:31:01;;;;;;;2.17;1.80;;;;;;;20.98;60.45;96976.63;5086644;28;21066;-78
2023/09/04 11:33:33;;;;;;;2.33;1.90;;;;;;;20.77;60.63;96949.56;5086096;28;20278;-82
2023/09/04 11:36:05;;;;;;;2.13;1.90;;;;;;;20.83;60.42;96959.59;5086150;28;20249;-82
2023/09/04 11:38:36;;;;;;;2.37;2.17;;;;;;;20.87;60.99;96957.50;5086325;28;20193;-81
2023/09/04 11:41:17;;;;;;;2.37;1.93;;;;;;;20.71;61.21;96908.00;5067548;28;20200;-79
2023/09/04 11:43:45;;;;;;;2.37;2.17;;;;;;;20.66;61.33;96910.22;5086974;28;20252;-82